Albany, Wisconsin
Current Conditions -  °F | °C
As of 7:35 AM on Friday 28 Nov 2014 (Local Time) from KEFT Reporting Station
Overcast Overcast  
Wind Chill:   Ceiling: 12000
Heat Index: 18°   Visibility: 10mi
Dew Point: 12°   Wind: 15mph
Humidity: 79%   Direction: 150°SSE
Pressure: 30.15"   Gusts: NA
Location:  42.71°N, 89.44°W
Report Text: KEFT 281335Z AUTO 15013KT 10SM OVC120 M08/M11 A3015 RMK AO2
Loading
Personal Weather Stations






























Interactive Weather Map New forecast layout! Learn more

10-Day Weather Forecast

Advertisements
Track Severe Weather on mobile